sensor_id;sensor_type;location;lat;lon;timestamp;temperature;humidity
2407;DHT22;37709;53.480;9.688;2022-08-21T00:01:41;11.00;99.90
2407;DHT22;37709;53.480;9.688;2022-08-21T00:04:10;11.00;99.90
2407;DHT22;37709;53.480;9.688;2022-08-21T00:06:42;11.00;99.90
2407;DHT22;37709;53.480;9.688;2022-08-21T00:09:09;11.00;99.90
2407;DHT22;37709;53.480;9.688;2022-08-21T00:11:38;11.00;99.90
2407;DHT22;37709;53.480;9.688;2022-08-21T00:14:07;11.00;99.90
2407;DHT22;37709;53.480;9.688;2022-08-21T00:16:36;11.00;99.90
2407;DHT22;37709;53.480;9.688;2022-08-21T00:19:05;11.20;99.90
2407;DHT22;37709;53.480;9.688;2022-08-21T00:21:34;11.30;99.90
2407;DHT22;37709;53.480;9.688;2022-08-21T00:24:02;11.40;99.90
2407;DHT22;37709;53.480;9.688;2022-08-21T00:26:30;11.50;99.90
2407;DHT22;37709;53.480;9.688;2022-08-21T00:28:58;11.50;99.90
2407;DHT22;37709;53.480;9.688;2022-08-21T00:31:26;11.60;99.90
2407;DHT22;37709;53.480;9.688;2022-08-21T00:33:54;11.70;99.90
2407;DHT22;37709;53.480;9.688;2022-08-21T00:36:27;11.70;99.90
2407;DHT22;37709;53.480;9.688;2022-08-21T00:38:56;11.70;99.90
2407;DHT22;37709;53.480;9.688;2022-08-21T00:41:24;11.70;99.90
2407;DHT22;37709;53.480;9.688;2022-08-21T00:44:08;11.70;99.90
2407;DHT22;37709;53.480;9.688;2022-08-21T00:46:37;11.60;99.90
2407;DHT22;37709;53.480;9.688;2022-08-21T00:49:07;11.60;99.90
2407;DHT22;37709;53.480;9.688;2022-08-21T00:51:39;11.60;99.90
2407;DHT22;37709;53.480;9.688;2022-08-21T00:54:10;11.50;99.90
2407;DHT22;37709;53.480;9.688;2022-08-21T00:56:46;11.60;99.90
2407;DHT22;37709;53.480;9.688;2022-08-21T00:59:16;11.60;99.90
2407;DHT22;37709;53.480;9.688;2022-08-21T01:01:45;11.50;99.90
2407;DHT22;37709;53.480;9.688;2022-08-21T01:04:13;11.60;99.90
2407;DHT22;37709;53.480;9.688;2022-08-21T01:06:42;11.60;99.90
2407;DHT22;37709;53.480;9.688;2022-08-21T01:09:10;11.60;99.90
2407;DHT22;37709;53.480;9.688;2022-08-21T01:11:39;11.60;99.90
2407;DHT22;37709;53.480;9.688;2022-08-21T01:14:09;11.60;99.90
2407;DHT22;37709;53.480;9.688;2022-08-21T01:16:43;11.60;99.90
2407;DHT22;37709;53.480;9.688;2022-08-21T01:19:12;11.70;99.90
2407;DHT22;37709;53.480;9.688;2022-08-21T01:21:40;11.70;99.90
2407;DHT22;37709;53.480;9.688;2022-08-21T01:24:11;11.70;99.90
2407;DHT22;37709;53.480;9.688;2022-08-21T01:26:39;11.60;99.90
2407;DHT22;37709;53.480;9.688;2022-08-21T01:29:39;11.60;99.90
2407;DHT22;37709;53.480;9.688;2022-08-21T01:32:12;11.60;99.90
2407;DHT22;37709;53.480;9.688;2022-08-21T01:34:43;11.60;99.90
2407;DHT22;37709;53.480;9.688;2022-08-21T01:37:12;11.60;99.90
2407;DHT22;37709;53.480;9.688;2022-08-21T01:39:41;11.60;99.90
2407;DHT22;37709;53.480;9.688;2022-08-21T01:42:09;11.50;99.90
2407;DHT22;37709;53.480;9.688;2022-08-21T01:44:37;11.50;99.90
2407;DHT22;37709;53.480;9.688;2022-08-21T01:47:09;11.40;99.90
2407;DHT22;37709;53.480;9.688;2022-08-21T01:49:38;11.40;99.90
2407;DHT22;37709;53.480;9.688;2022-08-21T01:52:06;11.40;99.90
2407;DHT22;37709;53.480;9.688;2022-08-21T01:54:36;11.30;99.90
2407;DHT22;37709;53.480;9.688;2022-08-21T01:57:04;11.10;99.90
2407;DHT22;37709;53.480;9.688;2022-08-21T01:59:32;11.10;99.90
2407;DHT22;37709;53.480;9.688;2022-08-21T02:02:01;11.00;99.90
2407;DHT22;37709;53.480;9.688;2022-08-21T02:04:32;11.00;99.90
2407;DHT22;37709;53.480;9.688;2022-08-21T02:07:01;11.00;99.90
2407;DHT22;37709;53.480;9.688;2022-08-21T02:09:28;11.00;99.90
2407;DHT22;37709;53.480;9.688;2022-08-21T02:11:57;11.00;99.90
2407;DHT22;37709;53.480;9.688;2022-08-21T02:14:24;11.10;99.90
2407;DHT22;37709;53.480;9.688;2022-08-21T02:16:59;11.10;99.90
2407;DHT22;37709;53.480;9.688;2022-08-21T02:19:37;11.10;99.90
2407;DHT22;37709;53.480;9.688;2022-08-21T02:22:09;11.00;99.90
2407;DHT22;37709;53.480;9.688;2022-08-21T02:24:37;11.00;99.90
2407;DHT22;37709;53.480;9.688;2022-08-21T02:27:23;10.90;99.90
2407;DHT22;37709;53.480;9.688;2022-08-21T02:29:55;10.90;99.90
2407;DHT22;37709;53.480;9.688;2022-08-21T02:32:24;10.90;99.90
2407;DHT22;37709;53.480;9.688;2022-08-21T02:34:52;10.90;99.90
2407;DHT22;37709;53.480;9.688;2022-08-21T02:37:19;10.90;99.90
2407;DHT22;37709;53.480;9.688;2022-08-21T02:39:46;10.90;99.90
2407;DHT22;37709;53.480;9.688;2022-08-21T02:42:15;10.80;99.90
2407;DHT22;37709;53.480;9.688;2022-08-21T02:44:43;10.70;99.90
2407;DHT22;37709;53.480;9.688;2022-08-21T02:47:10;10.70;99.90
2407;DHT22;37709;53.480;9.688;2022-08-21T02:49:37;10.70;99.90
2407;DHT22;37709;53.480;9.688;2022-08-21T02:52:05;10.70;99.90
2407;DHT22;37709;53.480;9.688;2022-08-21T02:54:33;10.70;99.90
2407;DHT22;37709;53.480;9.688;2022-08-21T02:57:00;10.70;99.90
2407;DHT22;37709;53.480;9.688;2022-08-21T02:59:28;10.70;99.90
2407;DHT22;37709;53.480;9.688;2022-08-21T03:01:55;10.70;99.90
2407;DHT22;37709;53.480;9.688;2022-08-21T03:04:23;10.60;99.90
2407;DHT22;37709;53.480;9.688;2022-08-21T03:06:50;10.70;99.90
2407;DHT22;37709;53.480;9.688;2022-08-21T03:09:18;10.70;99.90
2407;DHT22;37709;53.480;9.688;2022-08-21T03:11:45;10.80;99.90
2407;DHT22;37709;53.480;9.688;2022-08-21T03:14:14;10.80;99.90
2407;DHT22;37709;53.480;9.688;2022-08-21T03:16:41;10.90;99.90
2407;DHT22;37709;53.480;9.688;2022-08-21T03:19:09;10.90;99.90
2407;DHT22;37709;53.480;9.688;2022-08-21T03:21:37;10.90;99.90
2407;DHT22;37709;53.480;9.688;2022-08-21T03:24:04;10.80;99.90
2407;DHT22;37709;53.480;9.688;2022-08-21T03:26:34;10.70;99.90
2407;DHT22;37709;53.480;9.688;2022-08-21T03:29:02;10.70;99.90
2407;DHT22;37709;53.480;9.688;2022-08-21T03:31:29;10.60;99.90
2407;DHT22;37709;53.480;9.688;2022-08-21T03:33:58;10.60;99.90
2407;DHT22;37709;53.480;9.688;2022-08-21T03:36:26;10.60;99.90
2407;DHT22;37709;53.480;9.688;2022-08-21T03:38:54;10.50;99.90
2407;DHT22;37709;53.480;9.688;2022-08-21T03:41:21;10.60;99.90
2407;DHT22;37709;53.480;9.688;2022-08-21T03:43:49;10.50;99.90
2407;DHT22;37709;53.480;9.688;2022-08-21T03:46:16;10.50;99.90
2407;DHT22;37709;53.480;9.688;2022-08-21T03:48:44;10.50;99.90
2407;DHT22;37709;53.480;9.688;2022-08-21T03:51:11;10.50;99.90
2407;DHT22;37709;53.480;9.688;2022-08-21T03:53:39;10.60;99.90
2407;DHT22;37709;53.480;9.688;2022-08-21T03:56:07;10.70;99.90
2407;DHT22;37709;53.480;9.688;2022-08-21T03:58:34;10.70;99.90
2407;DHT22;37709;53.480;9.688;2022-08-21T04:01:04;10.80;99.90
2407;DHT22;37709;53.480;9.688;2022-08-21T04:03:35;10.80;99.90
2407;DHT22;37709;53.480;9.688;2022-08-21T04:06:04;10.90;99.90
2407;DHT22;37709;53.480;9.688;2022-08-21T04:08:31;10.90;99.90
2407;DHT22;37709;53.480;9.688;2022-08-21T04:11:00;10.90;99.90
2407;DHT22;37709;53.480;9.688;2022-08-21T04:13:28;10.90;99.90
2407;DHT22;37709;53.480;9.688;2022-08-21T04:15:56;10.80;99.90
2407;DHT22;37709;53.480;9.688;2022-08-21T04:18:26;10.90;99.90
2407;DHT22;37709;53.480;9.688;2022-08-21T04:20:54;10.80;99.90
2407;DHT22;37709;53.480;9.688;2022-08-21T04:23:24;10.80;99.90
2407;DHT22;37709;53.480;9.688;2022-08-21T04:25:54;10.80;99.90
2407;DHT22;37709;53.480;9.688;2022-08-21T04:28:23;10.80;99.90
2407;DHT22;37709;53.480;9.688;2022-08-21T04:30:56;10.90;99.90
2407;DHT22;37709;53.480;9.688;2022-08-21T04:33:25;10.90;99.90
2407;DHT22;37709;53.480;9.688;2022-08-21T04:35:52;10.90;99.90
2407;DHT22;37709;53.480;9.688;2022-08-21T04:38:21;11.00;99.90
2407;DHT22;37709;53.480;9.688;2022-08-21T04:40:49;11.10;99.90
2407;DHT22;37709;53.480;9.688;2022-08-21T04:43:17;11.30;99.90
2407;DHT22;37709;53.480;9.688;2022-08-21T04:45:47;11.50;99.90
2407;DHT22;37709;53.480;9.688;2022-08-21T04:48:19;11.60;99.90
2407;DHT22;37709;53.480;9.688;2022-08-21T04:51:12;11.70;99.90
2407;DHT22;37709;53.480;9.688;2022-08-21T04:54:09;11.80;99.90
2407;DHT22;37709;53.480;9.688;2022-08-21T04:56:41;11.80;99.90
2407;DHT22;37709;53.480;9.688;2022-08-21T04:59:22;11.70;99.90
2407;DHT22;37709;53.480;9.688;2022-08-21T05:01:50;11.70;99.90
2407;DHT22;37709;53.480;9.688;2022-08-21T05:04:22;11.80;99.90
2407;DHT22;37709;53.480;9.688;2022-08-21T05:06:53;11.90;99.90
2407;DHT22;37709;53.480;9.688;2022-08-21T05:09:22;12.00;99.90
2407;DHT22;37709;53.480;9.688;2022-08-21T05:11:51;12.10;99.90
2407;DHT22;37709;53.480;9.688;2022-08-21T05:14:19;12.10;99.90
2407;DHT22;37709;53.480;9.688;2022-08-21T05:16:47;12.20;99.90
2407;DHT22;37709;53.480;9.688;2022-08-21T05:19:15;12.30;99.90
2407;DHT22;37709;53.480;9.688;2022-08-21T05:21:44;12.20;99.90
2407;DHT22;37709;53.480;9.688;2022-08-21T05:24:12;12.20;99.90
2407;DHT22;37709;53.480;9.688;2022-08-21T05:26:40;12.10;99.90
2407;DHT22;37709;53.480;9.688;2022-08-21T05:29:14;12.20;99.90
2407;DHT22;37709;53.480;9.688;2022-08-21T05:31:43;12.30;99.90
2407;DHT22;37709;53.480;9.688;2022-08-21T05:34:12;12.30;99.90
2407;DHT22;37709;53.480;9.688;2022-08-21T05:36:43;12.40;99.90
2407;DHT22;37709;53.480;9.688;2022-08-21T05:39:11;12.40;99.90
2407;DHT22;37709;53.480;9.688;2022-08-21T05:41:38;12.60;99.90
2407;DHT22;37709;53.480;9.688;2022-08-21T05:44:06;12.80;99.90
2407;DHT22;37709;53.480;9.688;2022-08-21T05:46:37;13.10;99.90
2407;DHT22;37709;53.480;9.688;2022-08-21T05:49:04;13.20;99.90
2407;DHT22;37709;53.480;9.688;2022-08-21T05:51:33;13.30;99.90
2407;DHT22;37709;53.480;9.688;2022-08-21T05:54:01;13.20;99.90
2407;DHT22;37709;53.480;9.688;2022-08-21T05:56:28;13.20;99.90
2407;DHT22;37709;53.480;9.688;2022-08-21T05:58:56;13.20;99.90
2407;DHT22;37709;53.480;9.688;2022-08-21T06:01:24;13.20;99.90
2407;DHT22;37709;53.480;9.688;2022-08-21T06:03:52;13.30;99.90
2407;DHT22;37709;53.480;9.688;2022-08-21T06:06:23;13.40;99.90
2407;DHT22;37709;53.480;9.688;2022-08-21T06:08:50;13.40;99.90
2407;DHT22;37709;53.480;9.688;2022-08-21T06:11:17;13.40;99.90
2407;DHT22;37709;53.480;9.688;2022-08-21T06:13:47;13.40;99.90
2407;DHT22;37709;53.480;9.688;2022-08-21T06:16:15;13.40;99.90
2407;DHT22;37709;53.480;9.688;2022-08-21T06:18:44;13.30;99.90
2407;DHT22;37709;53.480;9.688;2022-08-21T06:21:13;13.40;99.90
2407;DHT22;37709;53.480;9.688;2022-08-21T06:23:41;13.50;99.90
2407;DHT22;37709;53.480;9.688;2022-08-21T06:26:11;13.70;99.90
2407;DHT22;37709;53.480;9.688;2022-08-21T06:28:38;13.80;99.90
2407;DHT22;37709;53.480;9.688;2022-08-21T06:31:18;14.00;99.90
2407;DHT22;37709;53.480;9.688;2022-08-21T06:33:46;14.20;99.90
2407;DHT22;37709;53.480;9.688;2022-08-21T06:36:14;14.40;99.90
2407;DHT22;37709;53.480;9.688;2022-08-21T06:38:41;14.60;99.90
2407;DHT22;37709;53.480;9.688;2022-08-21T06:41:19;14.90;99.90
2407;DHT22;37709;53.480;9.688;2022-08-21T06:43:50;15.30;99.90
2407;DHT22;37709;53.480;9.688;2022-08-21T06:46:18;15.80;99.90
2407;DHT22;37709;53.480;9.688;2022-08-21T06:48:45;16.40;99.90
2407;DHT22;37709;53.480;9.688;2022-08-21T06:51:13;17.20;99.90
2407;DHT22;37709;53.480;9.688;2022-08-21T06:53:40;18.40;99.90
2407;DHT22;37709;53.480;9.688;2022-08-21T06:56:08;19.60;99.90
2407;DHT22;37709;53.480;9.688;2022-08-21T06:58:35;20.90;99.90
2407;DHT22;37709;53.480;9.688;2022-08-21T07:01:03;21.80;99.90
2407;DHT22;37709;53.480;9.688;2022-08-21T07:03:37;22.20;99.90
2407;DHT22;37709;53.480;9.688;2022-08-21T07:06:07;22.90;99.30
2407;DHT22;37709;53.480;9.688;2022-08-21T07:08:35;23.40;97.70
2407;DHT22;37709;53.480;9.688;2022-08-21T07:11:09;23.70;97.10
2407;DHT22;37709;53.480;9.688;2022-08-21T07:13:38;24.00;96.00
2407;DHT22;37709;53.480;9.688;2022-08-21T07:16:06;24.60;95.90
2407;DHT22;37709;53.480;9.688;2022-08-21T07:18:33;25.20;95.10
2407;DHT22;37709;53.480;9.688;2022-08-21T07:21:05;25.40;94.00
2407;DHT22;37709;53.480;9.688;2022-08-21T07:23:37;25.60;93.20
2407;DHT22;37709;53.480;9.688;2022-08-21T07:26:06;26.00;92.80
2407;DHT22;37709;53.480;9.688;2022-08-21T07:28:34;26.10;92.70
2407;DHT22;37709;53.480;9.688;2022-08-21T07:31:02;26.50;92.00
2407;DHT22;37709;53.480;9.688;2022-08-21T07:33:32;26.60;91.30
2407;DHT22;37709;53.480;9.688;2022-08-21T07:36:01;26.90;91.10
2407;DHT22;37709;53.480;9.688;2022-08-21T07:38:28;27.50;90.40
2407;DHT22;37709;53.480;9.688;2022-08-21T07:40:57;27.80;88.70
2407;DHT22;37709;53.480;9.688;2022-08-21T07:43:27;28.10;86.60
2407;DHT22;37709;53.480;9.688;2022-08-21T07:45:55;28.20;84.90
2407;DHT22;37709;53.480;9.688;2022-08-21T07:48:23;28.10;83.40
2407;DHT22;37709;53.480;9.688;2022-08-21T07:50:51;28.50;84.10
2407;DHT22;37709;53.480;9.688;2022-08-21T07:53:19;28.70;81.70
2407;DHT22;37709;53.480;9.688;2022-08-21T07:55:46;28.70;81.00
2407;DHT22;37709;53.480;9.688;2022-08-21T07:58:14;29.60;79.90
2407;DHT22;37709;53.480;9.688;2022-08-21T08:00:41;30.40;77.20
2407;DHT22;37709;53.480;9.688;2022-08-21T08:03:09;30.60;75.60
2407;DHT22;37709;53.480;9.688;2022-08-21T08:05:36;30.70;74.30
2407;DHT22;37709;53.480;9.688;2022-08-21T08:08:06;30.90;73.60
2407;DHT22;37709;53.480;9.688;2022-08-21T08:10:34;31.00;70.70
2407;DHT22;37709;53.480;9.688;2022-08-21T08:13:02;30.90;71.20
2407;DHT22;37709;53.480;9.688;2022-08-21T08:15:31;31.70;70.60
2407;DHT22;37709;53.480;9.688;2022-08-21T08:18:03;32.80;69.00
2407;DHT22;37709;53.480;9.688;2022-08-21T08:20:31;33.40;66.60
2407;DHT22;37709;53.480;9.688;2022-08-21T08:22:58;33.80;65.90
2407;DHT22;37709;53.480;9.688;2022-08-21T08:25:27;34.10;62.90
2407;DHT22;37709;53.480;9.688;2022-08-21T08:28:04;33.80;61.50
2407;DHT22;37709;53.480;9.688;2022-08-21T08:30:46;34.30;61.30
2407;DHT22;37709;53.480;9.688;2022-08-21T08:33:16;34.90;60.20
2407;DHT22;37709;53.480;9.688;2022-08-21T08:35:46;35.00;59.80
2407;DHT22;37709;53.480;9.688;2022-08-21T08:38:17;35.50;58.50
2407;DHT22;37709;53.480;9.688;2022-08-21T08:41:12;35.60;56.80
2407;DHT22;37709;53.480;9.688;2022-08-21T08:43:44;35.50;57.30
2407;DHT22;37709;53.480;9.688;2022-08-21T08:46:15;35.70;55.70
2407;DHT22;37709;53.480;9.688;2022-08-21T08:48:57;36.10;56.40
2407;DHT22;37709;53.480;9.688;2022-08-21T08:54:00;37.10;53.90
2407;DHT22;37709;53.480;9.688;2022-08-21T08:56:32;37.60;52.60
2407;DHT22;37709;53.480;9.688;2022-08-21T08:59:15;37.80;51.20
2407;DHT22;37709;53.480;9.688;2022-08-21T09:01:43;37.60;50.80
2407;DHT22;37709;53.480;9.688;2022-08-21T09:04:11;37.90;50.50
2407;DHT22;37709;53.480;9.688;2022-08-21T09:07:01;37.80;49.10
2407;DHT22;37709;53.480;9.688;2022-08-21T09:15:31;39.30;47.20
2407;DHT22;37709;53.480;9.688;2022-08-21T09:23:48;39.90;43.50
2407;DHT22;37709;53.480;9.688;2022-08-21T09:26:20;38.90;43.70
2407;DHT22;37709;53.480;9.688;2022-08-21T09:28:53;37.00;45.20
2407;DHT22;37709;53.480;9.688;2022-08-21T09:31:28;36.90;48.10
2407;DHT22;37709;53.480;9.688;2022-08-21T09:34:02;38.20;45.70
2407;DHT22;37709;53.480;9.688;2022-08-21T09:36:40;38.50;43.80
2407;DHT22;37709;53.480;9.688;2022-08-21T09:39:09;38.20;44.30
2407;DHT22;37709;53.480;9.688;2022-08-21T09:41:38;38.40;43.50
2407;DHT22;37709;53.480;9.688;2022-08-21T09:44:07;37.50;43.70
2407;DHT22;37709;53.480;9.688;2022-08-21T09:46:35;37.80;43.60
2407;DHT22;37709;53.480;9.688;2022-08-21T09:49:04;34.30;46.70
2407;DHT22;37709;53.480;9.688;2022-08-21T09:51:36;33.70;48.30
2407;DHT22;37709;53.480;9.688;2022-08-21T09:56:53;35.90;46.80
2407;DHT22;37709;53.480;9.688;2022-08-21T09:59:41;37.00;46.30
2407;DHT22;37709;53.480;9.688;2022-08-21T10:02:32;36.80;44.30
2407;DHT22;37709;53.480;9.688;2022-08-21T10:05:06;34.70;47.10
2407;DHT22;37709;53.480;9.688;2022-08-21T10:07:37;32.50;49.40
2407;DHT22;37709;53.480;9.688;2022-08-21T10:10:16;35.50;47.50
2407;DHT22;37709;53.480;9.688;2022-08-21T10:13:01;38.10;41.90
2407;DHT22;37709;53.480;9.688;2022-08-21T10:18:29;40.70;38.30
2407;DHT22;37709;53.480;9.688;2022-08-21T10:32:10;39.60;37.90
2407;DHT22;37709;53.480;9.688;2022-08-21T10:40:40;43.10;34.90
2407;DHT22;37709;53.480;9.688;2022-08-21T10:43:49;42.90;35.00
2407;DHT22;37709;53.480;9.688;2022-08-21T10:46:47;43.20;34.70
2407;DHT22;37709;53.480;9.688;2022-08-21T10:55:06;38.60;38.30
2407;DHT22;37709;53.480;9.688;2022-08-21T10:57:57;40.90;36.20
2407;DHT22;37709;53.480;9.688;2022-08-21T11:00:36;37.90;38.40
2407;DHT22;37709;53.480;9.688;2022-08-21T11:05:51;36.90;40.10
2407;DHT22;37709;53.480;9.688;2022-08-21T11:08:33;36.20;41.80
2407;DHT22;37709;53.480;9.688;2022-08-21T11:11:12;39.90;38.10
2407;DHT22;37709;53.480;9.688;2022-08-21T11:14:24;39.10;37.20
2407;DHT22;37709;53.480;9.688;2022-08-21T11:17:02;36.10;40.50
2407;DHT22;37709;53.480;9.688;2022-08-21T11:27:42;40.20;35.90
2407;DHT22;37709;53.480;9.688;2022-08-21T11:30:12;41.60;33.20
2407;DHT22;37709;53.480;9.688;2022-08-21T11:33:04;42.50;32.30
2407;DHT22;37709;53.480;9.688;2022-08-21T11:35:47;43.10;32.70
2407;DHT22;37709;53.480;9.688;2022-08-21T11:38:35;42.50;32.30
2407;DHT22;37709;53.480;9.688;2022-08-21T11:46:47;42.10;33.90
2407;DHT22;37709;53.480;9.688;2022-08-21T11:54:58;38.80;34.40
2407;DHT22;37709;53.480;9.688;2022-08-21T12:00:05;43.30;31.20
2407;DHT22;37709;53.480;9.688;2022-08-21T12:02:45;44.40;30.10
2407;DHT22;37709;53.480;9.688;2022-08-21T12:05:33;44.60;30.60
2407;DHT22;37709;53.480;9.688;2022-08-21T12:08:09;45.00;30.60
2407;DHT22;37709;53.480;9.688;2022-08-21T12:10:59;46.00;29.70
2407;DHT22;37709;53.480;9.688;2022-08-21T12:13:30;47.00;29.00
2407;DHT22;37709;53.480;9.688;2022-08-21T12:16:12;47.10;28.20
2407;DHT22;37709;53.480;9.688;2022-08-21T12:18:42;43.10;30.00
2407;DHT22;37709;53.480;9.688;2022-08-21T12:21:26;42.40;30.10
2407;DHT22;37709;53.480;9.688;2022-08-21T12:26:50;44.10;29.30
2407;DHT22;37709;53.480;9.688;2022-08-21T12:29:33;44.00;29.00
2407;DHT22;37709;53.480;9.688;2022-08-21T12:32:22;41.40;31.00
2407;DHT22;37709;53.480;9.688;2022-08-21T12:35:12;40.20;33.00
2407;DHT22;37709;53.480;9.688;2022-08-21T12:37:59;42.60;31.50
2407;DHT22;37709;53.480;9.688;2022-08-21T12:40:55;41.00;30.90
2407;DHT22;37709;53.480;9.688;2022-08-21T12:43:31;37.60;34.80
2407;DHT22;37709;53.480;9.688;2022-08-21T12:46:01;36.20;36.60
2407;DHT22;37709;53.480;9.688;2022-08-21T12:48:39;35.70;38.60
2407;DHT22;37709;53.480;9.688;2022-08-21T12:51:13;36.10;37.30
2407;DHT22;37709;53.480;9.688;2022-08-21T12:53:53;35.60;38.10
2407;DHT22;37709;53.480;9.688;2022-08-21T12:56:24;38.00;36.70
2407;DHT22;37709;53.480;9.688;2022-08-21T12:59:01;40.80;33.60
2407;DHT22;37709;53.480;9.688;2022-08-21T13:01:50;41.60;32.30
2407;DHT22;37709;53.480;9.688;2022-08-21T13:04:33;43.60;31.00
2407;DHT22;37709;53.480;9.688;2022-08-21T13:07:01;45.10;29.80
2407;DHT22;37709;53.480;9.688;2022-08-21T13:09:32;43.90;29.60
2407;DHT22;37709;53.480;9.688;2022-08-21T13:12:00;44.80;30.60
2407;DHT22;37709;53.480;9.688;2022-08-21T13:16:59;45.50;29.20
2407;DHT22;37709;53.480;9.688;2022-08-21T13:19:27;45.30;28.50
2407;DHT22;37709;53.480;9.688;2022-08-21T13:21:56;45.90;28.80
2407;DHT22;37709;53.480;9.688;2022-08-21T13:24:30;45.10;28.80
2407;DHT22;37709;53.480;9.688;2022-08-21T13:27:28;43.90;29.20
2407;DHT22;37709;53.480;9.688;2022-08-21T13:30:03;43.00;29.60
2407;DHT22;37709;53.480;9.688;2022-08-21T13:32:32;44.10;30.00
2407;DHT22;37709;53.480;9.688;2022-08-21T13:35:11;42.40;30.30
2407;DHT22;37709;53.480;9.688;2022-08-21T13:37:41;40.40;32.70
2407;DHT22;37709;53.480;9.688;2022-08-21T13:40:16;39.00;34.00
2407;DHT22;37709;53.480;9.688;2022-08-21T13:42:45;37.20;36.60
2407;DHT22;37709;53.480;9.688;2022-08-21T13:45:18;35.90;38.90
2407;DHT22;37709;53.480;9.688;2022-08-21T13:47:46;35.50;38.80
2407;DHT22;37709;53.480;9.688;2022-08-21T13:50:16;37.90;36.20
2407;DHT22;37709;53.480;9.688;2022-08-21T13:55:25;41.60;31.00
2407;DHT22;37709;53.480;9.688;2022-08-21T13:58:01;40.10;31.50
2407;DHT22;37709;53.480;9.688;2022-08-21T14:00:31;40.10;32.40
2407;DHT22;37709;53.480;9.688;2022-08-21T14:03:08;41.40;31.20
2407;DHT22;37709;53.480;9.688;2022-08-21T14:05:45;41.90;30.20
2407;DHT22;37709;53.480;9.688;2022-08-21T14:08:23;41.70;30.80
2407;DHT22;37709;53.480;9.688;2022-08-21T14:10:57;42.50;31.00
2407;DHT22;37709;53.480;9.688;2022-08-21T14:13:36;42.60;30.90
2407;DHT22;37709;53.480;9.688;2022-08-21T14:16:16;42.20;30.90
2407;DHT22;37709;53.480;9.688;2022-08-21T14:18:51;41.60;31.60
2407;DHT22;37709;53.480;9.688;2022-08-21T14:21:45;41.40;32.20
2407;DHT22;37709;53.480;9.688;2022-08-21T14:24:27;40.70;31.90
2407;DHT22;37709;53.480;9.688;2022-08-21T14:27:03;39.10;33.50
2407;DHT22;37709;53.480;9.688;2022-08-21T14:29:40;39.50;33.60
2407;DHT22;37709;53.480;9.688;2022-08-21T14:32:20;39.50;32.60
2407;DHT22;37709;53.480;9.688;2022-08-21T14:34:53;37.60;34.30
2407;DHT22;37709;53.480;9.688;2022-08-21T14:37:22;36.70;36.40
2407;DHT22;37709;53.480;9.688;2022-08-21T14:39:50;37.30;35.80
2407;DHT22;37709;53.480;9.688;2022-08-21T14:42:18;36.10;37.60
2407;DHT22;37709;53.480;9.688;2022-08-21T14:44:47;35.70;38.00
2407;DHT22;37709;53.480;9.688;2022-08-21T14:47:14;36.20;37.40
2407;DHT22;37709;53.480;9.688;2022-08-21T14:49:42;35.40;38.00
2407;DHT22;37709;53.480;9.688;2022-08-21T14:52:11;35.10;39.10
2407;DHT22;37709;53.480;9.688;2022-08-21T14:54:38;35.20;39.30
2407;DHT22;37709;53.480;9.688;2022-08-21T14:57:08;35.70;39.00
2407;DHT22;37709;53.480;9.688;2022-08-21T14:59:38;35.10;38.80
2407;DHT22;37709;53.480;9.688;2022-08-21T15:02:09;34.90;39.50
2407;DHT22;37709;53.480;9.688;2022-08-21T15:04:37;35.30;40.00
2407;DHT22;37709;53.480;9.688;2022-08-21T15:07:05;35.50;38.50
2407;DHT22;37709;53.480;9.688;2022-08-21T15:09:32;35.70;37.80
2407;DHT22;37709;53.480;9.688;2022-08-21T15:12:02;36.00;38.40
2407;DHT22;37709;53.480;9.688;2022-08-21T15:14:33;36.20;37.40
2407;DHT22;37709;53.480;9.688;2022-08-21T15:17:02;35.70;37.90
2407;DHT22;37709;53.480;9.688;2022-08-21T15:19:31;35.80;38.40
2407;DHT22;37709;53.480;9.688;2022-08-21T15:21:58;35.80;38.30
2407;DHT22;37709;53.480;9.688;2022-08-21T15:24:27;35.30;38.20
2407;DHT22;37709;53.480;9.688;2022-08-21T15:26:56;34.70;38.70
2407;DHT22;37709;53.480;9.688;2022-08-21T15:29:26;34.00;40.00
2407;DHT22;37709;53.480;9.688;2022-08-21T15:32:23;33.50;41.10
2407;DHT22;37709;53.480;9.688;2022-08-21T15:34:51;33.00;40.80
2407;DHT22;37709;53.480;9.688;2022-08-21T15:37:19;32.30;41.50
2407;DHT22;37709;53.480;9.688;2022-08-21T15:39:49;32.00;41.70
2407;DHT22;37709;53.480;9.688;2022-08-21T15:42:21;31.50;42.50
2407;DHT22;37709;53.480;9.688;2022-08-21T15:44:49;31.40;43.20
2407;DHT22;37709;53.480;9.688;2022-08-21T15:47:21;31.40;43.90
2407;DHT22;37709;53.480;9.688;2022-08-21T15:49:49;31.30;44.10
2407;DHT22;37709;53.480;9.688;2022-08-21T15:52:19;31.10;43.70
2407;DHT22;37709;53.480;9.688;2022-08-21T15:54:47;30.70;44.20
2407;DHT22;37709;53.480;9.688;2022-08-21T15:57:18;30.50;44.40
2407;DHT22;37709;53.480;9.688;2022-08-21T15:59:49;30.20;45.10
2407;DHT22;37709;53.480;9.688;2022-08-21T16:02:22;30.20;45.30
2407;DHT22;37709;53.480;9.688;2022-08-21T16:04:50;30.10;46.10
2407;DHT22;37709;53.480;9.688;2022-08-21T16:07:17;30.00;46.50
2407;DHT22;37709;53.480;9.688;2022-08-21T16:09:45;29.70;46.80
2407;DHT22;37709;53.480;9.688;2022-08-21T16:12:20;29.60;46.90
2407;DHT22;37709;53.480;9.688;2022-08-21T16:14:48;29.70;47.90
2407;DHT22;37709;53.480;9.688;2022-08-21T16:17:16;29.80;47.90
2407;DHT22;37709;53.480;9.688;2022-08-21T16:19:44;30.20;47.40
2407;DHT22;37709;53.480;9.688;2022-08-21T16:22:12;30.40;47.30
2407;DHT22;37709;53.480;9.688;2022-08-21T16:24:39;30.20;46.80
2407;DHT22;37709;53.480;9.688;2022-08-21T16:27:08;29.90;48.00
2407;DHT22;37709;53.480;9.688;2022-08-21T16:29:36;29.70;48.20
2407;DHT22;37709;53.480;9.688;2022-08-21T16:32:06;29.30;48.20
2407;DHT22;37709;53.480;9.688;2022-08-21T16:34:35;29.00;48.70
2407;DHT22;37709;53.480;9.688;2022-08-21T16:37:03;28.50;48.90
2407;DHT22;37709;53.480;9.688;2022-08-21T16:39:30;28.10;50.30
2407;DHT22;37709;53.480;9.688;2022-08-21T16:41:58;28.00;52.30
2407;DHT22;37709;53.480;9.688;2022-08-21T16:44:25;27.80;52.80
2407;DHT22;37709;53.480;9.688;2022-08-21T16:46:57;27.80;51.90
2407;DHT22;37709;53.480;9.688;2022-08-21T16:49:24;27.40;52.60
2407;DHT22;37709;53.480;9.688;2022-08-21T16:51:52;27.10;53.00
2407;DHT22;37709;53.480;9.688;2022-08-21T16:54:19;27.00;53.70
2407;DHT22;37709;53.480;9.688;2022-08-21T16:56:46;27.20;53.60
2407;DHT22;37709;53.480;9.688;2022-08-21T16:59:14;27.30;53.60
2407;DHT22;37709;53.480;9.688;2022-08-21T17:01:44;27.20;54.00
2407;DHT22;37709;53.480;9.688;2022-08-21T17:04:12;27.20;55.00
2407;DHT22;37709;53.480;9.688;2022-08-21T17:06:40;27.10;54.60
2407;DHT22;37709;53.480;9.688;2022-08-21T17:09:07;27.00;55.00
2407;DHT22;37709;53.480;9.688;2022-08-21T17:11:38;26.70;55.70
2407;DHT22;37709;53.480;9.688;2022-08-21T17:14:19;26.40;57.30
2407;DHT22;37709;53.480;9.688;2022-08-21T17:16:51;26.20;58.60
2407;DHT22;37709;53.480;9.688;2022-08-21T17:19:19;25.80;59.50
2407;DHT22;37709;53.480;9.688;2022-08-21T17:21:47;25.80;60.10
2407;DHT22;37709;53.480;9.688;2022-08-21T17:24:15;25.60;61.10
2407;DHT22;37709;53.480;9.688;2022-08-21T17:26:43;25.40;63.00
2407;DHT22;37709;53.480;9.688;2022-08-21T17:29:12;25.20;64.50